createdAt,value
2018-09-04T00:04:23.196Z,68.6
2018-09-04T00:09:20.909Z,68.7
2018-09-04T00:14:18.399Z,68.8
2018-09-04T00:19:15.567Z,69
2018-09-04T00:24:12.855Z,68.8
2018-09-04T00:29:11.071Z,68.7
2018-09-04T00:34:08.574Z,68.5
2018-09-04T00:39:05.973Z,68.4
2018-09-04T00:44:03.070Z,68.5
2018-09-04T00:49:00.383Z,68.5
2018-09-04T00:53:58.657Z,68.6
2018-09-04T00:58:55.853Z,68.5
2018-09-04T01:03:53.505Z,68.7
2018-09-04T01:08:50.662Z,68.7
2018-09-04T01:13:48.053Z,68.7
2018-09-04T01:18:45.509Z,69.2
2018-09-04T01:23:43.772Z,69.1
2018-09-04T01:28:43.919Z,69.1
2018-09-04T01:33:40.670Z,69
2018-09-04T01:38:38.157Z,68.5
2018-09-04T01:43:35.480Z,68.5
2018-09-04T01:48:41.141Z,68.5
2018-09-04T01:53:36.626Z,68.2
2018-09-04T01:58:39.049Z,68.1
2018-09-04T02:03:35.619Z,68.3
2018-09-04T02:08:33.024Z,68.7
2018-09-04T02:13:30.476Z,68.7
2018-09-04T02:18:27.685Z,68.3
2018-09-04T02:23:29.276Z,68.7
2018-09-04T02:28:26.881Z,68.8
2018-09-04T02:33:23.771Z,69.3
2018-09-04T02:38:22.626Z,69.4
2018-09-04T02:43:19.436Z,69.2
2018-09-04T02:48:16.833Z,69.6
2018-09-04T02:53:12.780Z,69.7
2018-09-04T02:58:10.995Z,70
2018-09-04T03:03:08.430Z,69.7
2018-09-04T03:08:05.923Z,69.8
2018-09-04T03:13:03.273Z,70
2018-09-04T03:18:00.562Z,69.7
2018-09-04T03:22:57.895Z,69.5
2018-09-04T03:27:55.947Z,69.5
2018-09-04T03:32:53.233Z,69.3
2018-09-04T03:37:50.709Z,69.1
2018-09-04T03:42:47.763Z,68.5
2018-09-04T03:47:45.546Z,68.6
2018-09-04T03:52:42.621Z,68.9
2018-09-04T03:57:40.527Z,69.2
2018-09-04T04:02:37.931Z,69.2
2018-09-04T04:07:35.386Z,69.5
2018-09-04T04:12:32.417Z,69.4
2018-09-04T04:17:29.551Z,69.3
2018-09-04T04:22:26.854Z,70
2018-09-04T04:27:24.124Z,69.1
2018-09-04T04:32:20.987Z,69.1
2018-09-04T04:37:18.453Z,68.6
2018-09-04T04:42:16.110Z,68.2
2018-09-04T04:47:13.300Z,68.3
2018-09-04T04:52:10.401Z,68.3
2018-09-04T04:57:08.064Z,68.3
2018-09-04T05:02:05.552Z,68.3
2018-09-04T05:07:03.178Z,68.3
2018-09-04T05:12:00.923Z,68.3
2018-09-04T05:16:58.103Z,67.9
2018-09-04T05:21:55.580Z,68
2018-09-04T05:26:52.694Z,68
2018-09-04T05:31:49.815Z,68.2
2018-09-04T05:36:47.443Z,68.3
2018-09-04T05:41:45.127Z,68.1
2018-09-04T05:46:42.259Z,67.9
2018-09-04T05:51:48.596Z,68
2018-09-04T05:56:44.841Z,68
2018-09-04T06:01:42.358Z,67.9
2018-09-04T06:06:39.775Z,67.8
2018-09-04T06:11:36.943Z,67.9
2018-09-04T06:16:34.075Z,67.4
2018-09-04T06:21:31.463Z,67.6
2018-09-04T06:26:28.454Z,67.4
2018-09-04T06:31:25.704Z,67.6
2018-09-04T06:36:23.003Z,67.5
2018-09-04T06:41:20.080Z,67.2
2018-09-04T06:46:17.069Z,66.7
2018-09-04T06:51:14.293Z,66.6
2018-09-04T06:56:11.698Z,66.5
2018-09-04T07:01:09.220Z,66.3
2018-09-04T07:06:06.317Z,65.8
2018-09-04T07:11:03.519Z,65.6
2018-09-04T07:16:00.653Z,64.9
2018-09-04T07:20:58.107Z,64.5
2018-09-04T07:25:55.564Z,63.8
2018-09-04T07:30:52.942Z,63.8
2018-09-04T07:35:50.083Z,64
2018-09-04T07:40:47.440Z,64.3
2018-09-04T07:45:48.477Z,64.2
2018-09-04T07:50:44.682Z,64
2018-09-04T07:55:43.300Z,63.7
2018-09-04T08:00:45.407Z,63.6
2018-09-04T08:05:41.577Z,63.7
2018-09-04T08:10:39.121Z,63.6
2018-09-04T08:15:36.483Z,63.4
2018-09-04T08:20:34.223Z,63.2
2018-09-04T08:25:31.593Z,63.1
2018-09-04T08:30:33.154Z,62.8
2018-09-04T08:35:29.472Z,62.2
2018-09-04T08:40:26.950Z,61.6
2018-09-04T08:45:23.821Z,61.7
2018-09-04T08:50:22.048Z,61.7
2018-09-04T08:55:19.937Z,60.3
2018-09-04T09:00:17.056Z,59.4
2018-09-04T09:05:14.197Z,59.8
2018-09-04T09:10:11.735Z,59.7
2018-09-04T09:15:09.876Z,58.4
2018-09-04T09:20:08.783Z,58.3
2018-09-04T09:25:06.324Z,57.9
2018-09-04T09:30:03.856Z,57.5
2018-09-04T09:35:02.178Z,55.8
2018-09-04T09:39:59.439Z,55.1
2018-09-04T09:44:56.958Z,55.2
2018-09-04T09:49:54.459Z,54.4
2018-09-04T09:54:51.982Z,54.3
2018-09-04T09:59:49.953Z,54.6
2018-09-04T10:04:50.172Z,53.3
2018-09-04T10:09:51.057Z,53
2018-09-04T10:14:49.561Z,51.6
2018-09-04T10:19:46.649Z,51.5
2018-09-04T10:24:45.213Z,50.6
2018-09-04T10:29:42.460Z,49.5
2018-09-04T10:34:39.558Z,49.1
2018-09-04T10:39:36.891Z,48.4
2018-09-04T10:44:34.323Z,47.3
2018-09-04T10:49:31.686Z,48.7
2018-09-04T10:54:29.406Z,47.6
2018-09-04T10:59:26.983Z,48.3
2018-09-04T11:04:24.419Z,47.8
2018-09-04T11:09:21.770Z,47.2
2018-09-04T11:14:19.189Z,46.2
2018-09-04T11:19:16.644Z,46.3
2018-09-04T11:24:13.767Z,46.2
2018-09-04T11:29:11.616Z,45.7
2018-09-04T11:34:09.195Z,44.9
2018-09-04T11:39:06.857Z,43.9
2018-09-04T11:44:05.372Z,43.5
2018-09-04T11:49:02.659Z,43.1
2018-09-04T11:54:00.456Z,41.7
2018-09-04T11:58:58.482Z,40.7
2018-09-04T12:03:55.856Z,41
2018-09-04T12:08:53.520Z,40.1
2018-09-04T12:13:50.663Z,40
2018-09-04T12:18:48.006Z,37.6
2018-09-04T12:23:45.278Z,38.8
2018-09-04T12:28:43.075Z,38.5
2018-09-04T12:33:40.558Z,38
2018-09-04T12:38:39.091Z,37.1
2018-09-04T12:43:41.921Z,37.1
2018-09-04T12:48:39.384Z,37
2018-09-04T12:53:36.623Z,36.2
2018-09-04T12:58:34.239Z,36.5
2018-09-04T13:03:31.537Z,35.5
2018-09-04T13:08:28.548Z,35.4
2018-09-04T13:13:25.954Z,35.9
2018-09-04T13:18:23.808Z,35.3
2018-09-04T13:23:21.451Z,35.6
2018-09-04T13:28:19.010Z,34.9
2018-09-04T13:33:15.944Z,35.4
2018-09-04T13:38:13.487Z,35.6
2018-09-04T13:43:10.751Z,35.7
2018-09-04T13:48:08.941Z,35.7
2018-09-04T13:53:06.171Z,35.3
2018-09-04T13:58:03.306Z,35.9
2018-09-04T14:03:00.533Z,35.3
2018-09-04T14:07:57.852Z,35.9
2018-09-04T14:12:55.323Z,36.3
2018-09-04T14:17:52.058Z,35.8
2018-09-04T14:22:49.485Z,36.6
2018-09-04T14:27:47.464Z,36.7
2018-09-04T14:32:44.511Z,36.8
2018-09-04T14:37:42.135Z,36.9
2018-09-04T14:42:38.870Z,36.8
2018-09-04T14:47:36.403Z,36.7
2018-09-04T14:52:33.784Z,37.1
2018-09-04T14:57:31.274Z,37.3
2018-09-04T15:02:28.810Z,37.6
2018-09-04T15:07:26.069Z,37.7
2018-09-04T15:12:23.279Z,37.6
2018-09-04T15:17:20.535Z,37.8
2018-09-04T15:22:25.780Z,37.6
2018-09-04T15:27:21.435Z,37.7
2018-09-04T15:32:19.685Z,38
2018-09-04T15:37:16.758Z,38.2
2018-09-04T15:42:14.088Z,38.4
2018-09-04T15:47:11.466Z,38.7
2018-09-04T15:52:10.466Z,38.5
2018-09-04T15:57:07.714Z,38.4
2018-09-04T16:02:05.041Z,38.6
2018-09-04T16:07:02.544Z,38.8
2018-09-04T16:11:59.874Z,38.9
2018-09-04T16:16:56.830Z,38.9
2018-09-04T16:21:54.131Z,39
2018-09-04T16:26:51.605Z,39.4
2018-09-04T16:31:49.385Z,40.8
2018-09-04T16:36:46.601Z,43.7
2018-09-04T16:41:43.841Z,44.5
2018-09-04T16:46:56.004Z,45.2
2018-09-04T16:51:50.656Z,45.4
2018-09-04T16:56:48.136Z,46
2018-09-04T17:01:45.582Z,46.4
2018-09-04T17:06:42.675Z,46.7
2018-09-04T17:11:40.125Z,47
2018-09-04T17:16:37.430Z,47.6
2018-09-04T17:21:34.289Z,47.7
2018-09-04T17:26:31.619Z,47.8
2018-09-04T17:31:28.307Z,48.1
2018-09-04T17:36:25.741Z,48.4
2018-09-04T17:41:23.843Z,48.8
2018-09-04T17:46:21.136Z,49
2018-09-04T17:51:18.129Z,49.2
2018-09-04T17:56:15.619Z,49.5
2018-09-04T18:01:12.980Z,49.6
2018-09-04T18:06:11.549Z,49.8
2018-09-04T18:11:08.508Z,50
2018-09-04T18:16:05.694Z,50.2
2018-09-04T18:21:02.988Z,50.4
2018-09-04T18:26:00.171Z,50.5
2018-09-04T18:30:57.238Z,50.7
2018-09-04T18:35:55.228Z,50.9
2018-09-04T18:40:52.887Z,51.1
2018-09-04T18:45:49.992Z,51.3
2018-09-04T18:50:47.316Z,51.9
2018-09-04T18:55:45.282Z,52.5
2018-09-04T19:00:43.043Z,52.6
2018-09-04T19:05:40.186Z,52.7
2018-09-04T19:10:37.173Z,52.6
2018-09-04T19:15:34.838Z,52.6
2018-09-04T19:20:31.629Z,53.1
2018-09-04T19:25:29.384Z,53.3
2018-09-04T19:30:26.785Z,53.2
2018-09-04T19:35:23.715Z,53.3
2018-09-04T19:40:20.883Z,53.6
2018-09-04T19:45:18.377Z,53.8
2018-09-04T19:50:15.533Z,53.7
2018-09-04T19:55:13.364Z,53.8
2018-09-04T20:00:10.688Z,53.8
2018-09-04T20:05:07.756Z,53.9
2018-09-04T20:10:04.776Z,54
2018-09-04T20:15:02.086Z,54.4
2018-09-04T20:19:59.166Z,55.1
2018-09-04T20:24:55.864Z,55.3
2018-09-04T20:29:51.289Z,53.6
2018-09-04T20:34:48.533Z,52.6
2018-09-04T20:39:45.694Z,51.8
2018-09-04T20:44:42.878Z,51.7
2018-09-04T20:49:40.078Z,52.1
2018-09-04T20:54:37.177Z,52.4
2018-09-04T20:59:34.606Z,52.6
2018-09-04T21:04:31.862Z,52.5
2018-09-04T21:09:28.627Z,53.1
2018-09-04T21:14:26.008Z,53.7
2018-09-04T21:19:23.936Z,53.8
2018-09-04T21:24:20.936Z,53.9
2018-09-04T21:29:17.890Z,54.7
2018-09-04T21:34:15.251Z,55.1
2018-09-04T21:39:12.226Z,55.4
2018-09-04T21:44:09.379Z,55.5
2018-09-04T21:49:07.031Z,55.8
2018-09-04T21:54:04.241Z,55.7
2018-09-04T21:59:01.111Z,55.6
2018-09-04T22:03:58.446Z,55.5
2018-09-04T22:09:00.448Z,55.4
2018-09-04T22:13:57.522Z,55.3
2018-09-04T22:18:54.429Z,55.5
2018-09-04T22:23:51.762Z,55.4
2018-09-04T22:28:48.940Z,55.4
2018-09-04T22:33:46.320Z,55.3
2018-09-04T22:38:51.128Z,55.2
2018-09-04T22:43:46.943Z,55.1
2018-09-04T22:48:49.170Z,55.1
2018-09-04T22:53:45.222Z,55.3
2018-09-04T22:58:42.844Z,55.6
2018-09-04T23:03:40.168Z,55.6
2018-09-04T23:08:37.959Z,55.7
2018-09-04T23:13:35.151Z,55.8
2018-09-04T23:18:32.522Z,55.9
2018-09-04T23:23:29.428Z,56
2018-09-04T23:28:26.844Z,56.2
2018-09-04T23:33:23.758Z,56
2018-09-04T23:38:22.135Z,55.9
2018-09-04T23:43:19.090Z,56.2
2018-09-04T23:48:16.907Z,56.3
2018-09-04T23:53:14.159Z,56.8
2018-09-04T23:58:11.851Z,56.5
